KBKT/BKT METAR and TAF weather

Enter ICAO airport designator
Station Type Date Time Source
KBKT METAR 2020/01/26 18:55 UTC NOAA

KBKT 261855Z AUTO 31006KT 10SM SCT050 10/M02 A2990 RMK AO1 T00951019


Station Type Date Time Source
KBKT Decoded METAR 2020/01/26 18:55 UTC NOAA

Ft. Pickett / Blackstone, VA, United States (KBKT) 37-05N 077-57W
Jan 26, 2020 - 01:55 PM EST / 2020.01.26 1855 UTC
Wind: from the NW (310 degrees) at 7 MPH (6 KT):0
Visibility: 10 mile(s):0
Sky conditions: partly cloudy
Temperature: 49.1 F (9.5 C)
Dew Point: 28.6 F (-1.9 C)
Relative Humidity: 44%
Pressure (altimeter): 29.9 in. Hg (1012 hPa)
ob: KBKT 261855Z AUTO 31006KT 10SM SCT050 10/M02 A2990 RMK AO1 T00951019
cycle: 19

Station Type Date Time Source
KBKT TAF UTC NOAA

Error!

Example: see airport list